sensor_id;sensor_type;location;lat;lon;timestamp;temperature;humidity
1680;DHT22;838;51.794;12.258;2024-01-15T00:00:28;2.80;42.50
1680;DHT22;838;51.794;12.258;2024-01-15T00:02:54;2.90;43.10
1680;DHT22;838;51.794;12.258;2024-01-15T00:05:20;2.80;42.20
1680;DHT22;838;51.794;12.258;2024-01-15T00:07:45;2.70;42.80
1680;DHT22;838;51.794;12.258;2024-01-15T00:10:11;2.70;42.60
1680;DHT22;838;51.794;12.258;2024-01-15T00:12:37;2.70;43.60
1680;DHT22;838;51.794;12.258;2024-01-15T00:15:03;2.80;43.10
1680;DHT22;838;51.794;12.258;2024-01-15T00:17:29;2.80;42.00
1680;DHT22;838;51.794;12.258;2024-01-15T00:19:54;2.70;42.10
1680;DHT22;838;51.794;12.258;2024-01-15T00:22:20;2.70;42.20
1680;DHT22;838;51.794;12.258;2024-01-15T00:24:46;2.70;42.90
1680;DHT22;838;51.794;12.258;2024-01-15T00:27:11;2.80;42.40
1680;DHT22;838;51.794;12.258;2024-01-15T00:29:37;2.80;41.70
1680;DHT22;838;51.794;12.258;2024-01-15T00:32:03;2.90;39.00
1680;DHT22;838;51.794;12.258;2024-01-15T00:34:29;2.80;38.90
1680;DHT22;838;51.794;12.258;2024-01-15T00:36:54;2.80;38.80
1680;DHT22;838;51.794;12.258;2024-01-15T00:39:20;2.70;39.30
1680;DHT22;838;51.794;12.258;2024-01-15T00:41:46;2.80;39.30
1680;DHT22;838;51.794;12.258;2024-01-15T00:44:11;2.70;38.90
1680;DHT22;838;51.794;12.258;2024-01-15T00:46:45;2.70;39.60
1680;DHT22;838;51.794;12.258;2024-01-15T00:49:15;2.60;41.20
1680;DHT22;838;51.794;12.258;2024-01-15T00:51:40;2.50;41.40
1680;DHT22;838;51.794;12.258;2024-01-15T00:54:07;2.50;42.20
1680;DHT22;838;51.794;12.258;2024-01-15T00:56:33;2.80;43.20
1680;DHT22;838;51.794;12.258;2024-01-15T00:58:59;2.40;42.90
1680;DHT22;838;51.794;12.258;2024-01-15T01:01:25;2.50;44.00
1680;DHT22;838;51.794;12.258;2024-01-15T01:03:50;2.50;43.00
1680;DHT22;838;51.794;12.258;2024-01-15T01:06:16;2.50;43.50
1680;DHT22;838;51.794;12.258;2024-01-15T01:08:42;2.50;44.50
1680;DHT22;838;51.794;12.258;2024-01-15T01:11:07;2.50;43.60
1680;DHT22;838;51.794;12.258;2024-01-15T01:13:33;2.40;45.00
1680;DHT22;838;51.794;12.258;2024-01-15T01:15:59;2.40;46.60
1680;DHT22;838;51.794;12.258;2024-01-15T01:18:24;2.40;47.90
1680;DHT22;838;51.794;12.258;2024-01-15T01:20:50;2.40;47.50
1680;DHT22;838;51.794;12.258;2024-01-15T01:23:16;2.50;47.70
1680;DHT22;838;51.794;12.258;2024-01-15T01:25:42;2.50;47.50
1680;DHT22;838;51.794;12.258;2024-01-15T01:28:07;2.50;46.80
1680;DHT22;838;51.794;12.258;2024-01-15T01:30:33;2.50;45.70
1680;DHT22;838;51.794;12.258;2024-01-15T01:32:59;2.50;45.70
1680;DHT22;838;51.794;12.258;2024-01-15T01:35:24;2.50;44.50
1680;DHT22;838;51.794;12.258;2024-01-15T01:37:50;2.50;44.10
1680;DHT22;838;51.794;12.258;2024-01-15T01:40:16;2.50;43.60
1680;DHT22;838;51.794;12.258;2024-01-15T01:42:41;2.50;42.60
1680;DHT22;838;51.794;12.258;2024-01-15T01:45:08;2.50;42.80
1680;DHT22;838;51.794;12.258;2024-01-15T01:47:34;2.50;41.50
1680;DHT22;838;51.794;12.258;2024-01-15T01:50:00;2.60;41.00
1680;DHT22;838;51.794;12.258;2024-01-15T01:52:26;2.60;39.60
1680;DHT22;838;51.794;12.258;2024-01-15T01:54:52;2.60;39.70
1680;DHT22;838;51.794;12.258;2024-01-15T01:57:18;2.60;40.10
1680;DHT22;838;51.794;12.258;2024-01-15T01:59:46;2.70;38.40
1680;DHT22;838;51.794;12.258;2024-01-15T02:02:11;2.60;38.10
1680;DHT22;838;51.794;12.258;2024-01-15T02:04:37;2.70;38.60
1680;DHT22;838;51.794;12.258;2024-01-15T02:07:03;2.70;39.40
1680;DHT22;838;51.794;12.258;2024-01-15T02:09:30;2.70;40.00
1680;DHT22;838;51.794;12.258;2024-01-15T02:11:57;2.60;41.10
1680;DHT22;838;51.794;12.258;2024-01-15T02:14:23;2.50;43.20
1680;DHT22;838;51.794;12.258;2024-01-15T02:16:49;2.50;43.30
1680;DHT22;838;51.794;12.258;2024-01-15T02:19:16;2.50;44.80
1680;DHT22;838;51.794;12.258;2024-01-15T02:21:42;2.30;47.50
1680;DHT22;838;51.794;12.258;2024-01-15T02:24:08;2.30;48.90
1680;DHT22;838;51.794;12.258;2024-01-15T02:26:34;2.20;51.10
1680;DHT22;838;51.794;12.258;2024-01-15T02:29:01;2.10;52.00
1680;DHT22;838;51.794;12.258;2024-01-15T02:31:27;2.10;53.20
1680;DHT22;838;51.794;12.258;2024-01-15T02:33:53;2.00;54.60
1680;DHT22;838;51.794;12.258;2024-01-15T02:36:19;2.00;55.80
1680;DHT22;838;51.794;12.258;2024-01-15T02:38:44;2.10;55.80
1680;DHT22;838;51.794;12.258;2024-01-15T02:41:10;2.00;56.70
1680;DHT22;838;51.794;12.258;2024-01-15T02:43:36;2.10;56.10
1680;DHT22;838;51.794;12.258;2024-01-15T02:46:01;2.10;57.20
1680;DHT22;838;51.794;12.258;2024-01-15T02:48:27;2.00;57.80
1680;DHT22;838;51.794;12.258;2024-01-15T02:50:53;2.10;58.20
1680;DHT22;838;51.794;12.258;2024-01-15T02:53:18;2.20;55.60
1680;DHT22;838;51.794;12.258;2024-01-15T02:55:44;2.20;54.80
1680;DHT22;838;51.794;12.258;2024-01-15T02:58:10;2.20;53.00
1680;DHT22;838;51.794;12.258;2024-01-15T03:00:35;2.10;52.30
1680;DHT22;838;51.794;12.258;2024-01-15T03:03:01;2.10;52.20
1680;DHT22;838;51.794;12.258;2024-01-15T03:05:27;2.00;52.60
1680;DHT22;838;51.794;12.258;2024-01-15T03:07:52;1.90;53.30
1680;DHT22;838;51.794;12.258;2024-01-15T03:10:18;2.00;54.10
1680;DHT22;838;51.794;12.258;2024-01-15T03:12:44;2.00;54.20
1680;DHT22;838;51.794;12.258;2024-01-15T03:15:10;1.90;54.60
1680;DHT22;838;51.794;12.258;2024-01-15T03:17:35;2.00;53.80
1680;DHT22;838;51.794;12.258;2024-01-15T03:20:01;1.90;53.30
1680;DHT22;838;51.794;12.258;2024-01-15T03:22:28;1.90;54.00
1680;DHT22;838;51.794;12.258;2024-01-15T03:24:54;1.80;53.80
1680;DHT22;838;51.794;12.258;2024-01-15T03:27:20;1.90;54.50
1680;DHT22;838;51.794;12.258;2024-01-15T03:29:45;1.80;54.20
1680;DHT22;838;51.794;12.258;2024-01-15T03:32:11;1.90;54.00
1680;DHT22;838;51.794;12.258;2024-01-15T03:34:37;1.90;52.90
1680;DHT22;838;51.794;12.258;2024-01-15T03:37:03;1.90;52.80
1680;DHT22;838;51.794;12.258;2024-01-15T03:39:29;2.00;52.70
1680;DHT22;838;51.794;12.258;2024-01-15T03:41:55;2.00;51.90
1680;DHT22;838;51.794;12.258;2024-01-15T03:44:21;2.00;51.80
1680;DHT22;838;51.794;12.258;2024-01-15T03:46:46;1.70;51.10
1680;DHT22;838;51.794;12.258;2024-01-15T03:49:12;2.10;50.20
1680;DHT22;838;51.794;12.258;2024-01-15T03:51:38;2.00;50.00
1680;DHT22;838;51.794;12.258;2024-01-15T03:54:04;2.00;50.50
1680;DHT22;838;51.794;12.258;2024-01-15T03:56:29;2.10;50.10
1680;DHT22;838;51.794;12.258;2024-01-15T03:58:55;2.00;48.80
1680;DHT22;838;51.794;12.258;2024-01-15T04:01:21;2.00;48.90
1680;DHT22;838;51.794;12.258;2024-01-15T04:03:46;2.10;47.80
1680;DHT22;838;51.794;12.258;2024-01-15T04:06:12;2.00;47.30
1680;DHT22;838;51.794;12.258;2024-01-15T04:08:38;2.10;47.80
1680;DHT22;838;51.794;12.258;2024-01-15T04:11:03;2.10;47.00
1680;DHT22;838;51.794;12.258;2024-01-15T04:13:32;2.10;45.80
1680;DHT22;838;51.794;12.258;2024-01-15T04:15:58;2.00;45.80
1680;DHT22;838;51.794;12.258;2024-01-15T04:18:25;2.00;46.90
1680;DHT22;838;51.794;12.258;2024-01-15T04:20:51;1.90;47.20
1680;DHT22;838;51.794;12.258;2024-01-15T04:23:17;1.90;47.60
1680;DHT22;838;51.794;12.258;2024-01-15T04:25:42;1.80;47.40
1680;DHT22;838;51.794;12.258;2024-01-15T04:28:09;1.70;48.90
1680;DHT22;838;51.794;12.258;2024-01-15T04:30:35;1.70;50.60
1680;DHT22;838;51.794;12.258;2024-01-15T04:33:01;1.70;49.70
1680;DHT22;838;51.794;12.258;2024-01-15T04:35:27;1.70;49.90
1680;DHT22;838;51.794;12.258;2024-01-15T04:37:52;1.70;51.10
1680;DHT22;838;51.794;12.258;2024-01-15T04:40:18;1.80;51.70
1680;DHT22;838;51.794;12.258;2024-01-15T04:42:44;1.80;50.10
1680;DHT22;838;51.794;12.258;2024-01-15T04:45:11;1.80;49.50
1680;DHT22;838;51.794;12.258;2024-01-15T04:47:37;1.90;49.50
1680;DHT22;838;51.794;12.258;2024-01-15T04:50:04;1.90;49.20
1680;DHT22;838;51.794;12.258;2024-01-15T04:52:30;1.90;49.40
1680;DHT22;838;51.794;12.258;2024-01-15T04:54:56;1.90;48.10
1680;DHT22;838;51.794;12.258;2024-01-15T04:57:21;1.90;47.20
1680;DHT22;838;51.794;12.258;2024-01-15T04:59:47;1.90;46.90
1680;DHT22;838;51.794;12.258;2024-01-15T05:02:13;2.00;45.40
1680;DHT22;838;51.794;12.258;2024-01-15T05:04:38;2.00;44.60
1680;DHT22;838;51.794;12.258;2024-01-15T05:07:05;2.00;44.10
1680;DHT22;838;51.794;12.258;2024-01-15T05:09:30;2.00;43.60
1680;DHT22;838;51.794;12.258;2024-01-15T05:11:56;2.00;44.00
1680;DHT22;838;51.794;12.258;2024-01-15T05:14:22;2.00;42.90
1680;DHT22;838;51.794;12.258;2024-01-15T05:16:48;2.00;41.50
1680;DHT22;838;51.794;12.258;2024-01-15T05:19:14;2.00;40.90
1680;DHT22;838;51.794;12.258;2024-01-15T05:21:40;2.10;40.90
1680;DHT22;838;51.794;12.258;2024-01-15T05:24:06;2.10;39.40
1680;DHT22;838;51.794;12.258;2024-01-15T05:26:32;2.10;37.40
1680;DHT22;838;51.794;12.258;2024-01-15T05:28:58;2.20;37.10
1680;DHT22;838;51.794;12.258;2024-01-15T05:31:24;2.20;35.90
1680;DHT22;838;51.794;12.258;2024-01-15T05:33:49;2.20;36.10
1680;DHT22;838;51.794;12.258;2024-01-15T05:36:15;2.20;35.20
1680;DHT22;838;51.794;12.258;2024-01-15T05:38:41;2.30;34.70
1680;DHT22;838;51.794;12.258;2024-01-15T05:41:06;2.40;34.00
1680;DHT22;838;51.794;12.258;2024-01-15T05:43:32;2.40;34.00
1680;DHT22;838;51.794;12.258;2024-01-15T05:45:58;2.40;34.00
1680;DHT22;838;51.794;12.258;2024-01-15T05:48:24;2.40;35.00
1680;DHT22;838;51.794;12.258;2024-01-15T05:50:49;2.30;35.70
1680;DHT22;838;51.794;12.258;2024-01-15T05:53:15;2.30;36.20
1680;DHT22;838;51.794;12.258;2024-01-15T05:55:41;2.40;36.10
1680;DHT22;838;51.794;12.258;2024-01-15T05:58:06;2.30;35.70
1680;DHT22;838;51.794;12.258;2024-01-15T06:00:32;2.30;34.40
1680;DHT22;838;51.794;12.258;2024-01-15T06:03:01;2.40;34.00
1680;DHT22;838;51.794;12.258;2024-01-15T06:05:27;2.50;31.90
1680;DHT22;838;51.794;12.258;2024-01-15T06:07:53;2.50;30.40
1680;DHT22;838;51.794;12.258;2024-01-15T06:10:18;2.50;29.30
1680;DHT22;838;51.794;12.258;2024-01-15T06:12:44;2.50;27.80
1680;DHT22;838;51.794;12.258;2024-01-15T06:15:10;2.60;27.40
1680;DHT22;838;51.794;12.258;2024-01-15T06:17:38;2.60;27.10
1680;DHT22;838;51.794;12.258;2024-01-15T06:20:04;2.60;26.40
1680;DHT22;838;51.794;12.258;2024-01-15T06:22:30;2.70;26.40
1680;DHT22;838;51.794;12.258;2024-01-15T06:24:55;2.80;25.20
1680;DHT22;838;51.794;12.258;2024-01-15T06:27:24;2.80;24.40
1680;DHT22;838;51.794;12.258;2024-01-15T06:29:50;2.80;24.50
1680;DHT22;838;51.794;12.258;2024-01-15T06:32:16;2.80;24.10
1680;DHT22;838;51.794;12.258;2024-01-15T06:34:41;2.70;24.60
1680;DHT22;838;51.794;12.258;2024-01-15T06:37:07;2.80;24.90
1680;DHT22;838;51.794;12.258;2024-01-15T06:39:33;2.80;24.40
1680;DHT22;838;51.794;12.258;2024-01-15T06:41:58;2.90;23.60
1680;DHT22;838;51.794;12.258;2024-01-15T06:44:24;2.80;24.20
1680;DHT22;838;51.794;12.258;2024-01-15T06:46:50;2.80;24.10
1680;DHT22;838;51.794;12.258;2024-01-15T06:49:17;2.80;24.90
1680;DHT22;838;51.794;12.258;2024-01-15T06:51:42;2.80;24.80
1680;DHT22;838;51.794;12.258;2024-01-15T06:54:08;2.70;25.00
1680;DHT22;838;51.794;12.258;2024-01-15T06:56:34;2.80;25.30
1680;DHT22;838;51.794;12.258;2024-01-15T06:59:00;2.80;25.50
1680;DHT22;838;51.794;12.258;2024-01-15T07:01:25;2.70;25.80
1680;DHT22;838;51.794;12.258;2024-01-15T07:03:51;2.70;26.40
1680;DHT22;838;51.794;12.258;2024-01-15T07:06:17;2.70;27.00
1680;DHT22;838;51.794;12.258;2024-01-15T07:08:42;2.80;26.80
1680;DHT22;838;51.794;12.258;2024-01-15T07:11:08;2.90;25.60
1680;DHT22;838;51.794;12.258;2024-01-15T07:13:36;2.90;26.20
1680;DHT22;838;51.794;12.258;2024-01-15T07:16:02;2.90;26.20
1680;DHT22;838;51.794;12.258;2024-01-15T07:18:28;3.00;25.40
1680;DHT22;838;51.794;12.258;2024-01-15T07:20:53;2.90;25.90
1680;DHT22;838;51.794;12.258;2024-01-15T07:23:19;2.90;26.50
1680;DHT22;838;51.794;12.258;2024-01-15T07:25:45;2.90;27.60
1680;DHT22;838;51.794;12.258;2024-01-15T07:28:11;2.90;27.40
1680;DHT22;838;51.794;12.258;2024-01-15T07:30:36;2.80;28.40
1680;DHT22;838;51.794;12.258;2024-01-15T07:33:04;2.80;29.10
1680;DHT22;838;51.794;12.258;2024-01-15T07:35:30;2.80;29.90
1680;DHT22;838;51.794;12.258;2024-01-15T07:37:56;2.70;29.90
1680;DHT22;838;51.794;12.258;2024-01-15T07:40:22;2.70;30.70
1680;DHT22;838;51.794;12.258;2024-01-15T07:42:48;2.70;29.30
1680;DHT22;838;51.794;12.258;2024-01-15T07:45:13;2.70;29.60
1680;DHT22;838;51.794;12.258;2024-01-15T07:47:39;2.70;29.00
1680;DHT22;838;51.794;12.258;2024-01-15T07:50:05;2.70;28.90
1680;DHT22;838;51.794;12.258;2024-01-15T07:52:31;2.70;28.90
1680;DHT22;838;51.794;12.258;2024-01-15T07:54:57;2.70;28.80
1680;DHT22;838;51.794;12.258;2024-01-15T07:57:25;2.70;28.70
1680;DHT22;838;51.794;12.258;2024-01-15T07:59:50;2.60;28.70
1680;DHT22;838;51.794;12.258;2024-01-15T08:02:17;2.60;28.60
1680;DHT22;838;51.794;12.258;2024-01-15T08:04:42;2.70;29.20
1680;DHT22;838;51.794;12.258;2024-01-15T08:07:08;2.80;27.80
1680;DHT22;838;51.794;12.258;2024-01-15T08:09:34;2.80;27.20
1680;DHT22;838;51.794;12.258;2024-01-15T08:12:00;2.80;27.60
1680;DHT22;838;51.794;12.258;2024-01-15T08:14:26;2.90;27.60
1680;DHT22;838;51.794;12.258;2024-01-15T08:16:52;2.80;27.60
1680;DHT22;838;51.794;12.258;2024-01-15T08:19:17;2.80;28.10
1680;DHT22;838;51.794;12.258;2024-01-15T08:21:43;2.90;27.50
1680;DHT22;838;51.794;12.258;2024-01-15T08:24:09;2.90;27.40
1680;DHT22;838;51.794;12.258;2024-01-15T08:26:35;3.00;27.60
1680;DHT22;838;51.794;12.258;2024-01-15T08:29:01;3.10;26.70
1680;DHT22;838;51.794;12.258;2024-01-15T08:31:26;3.10;27.10
1680;DHT22;838;51.794;12.258;2024-01-15T08:33:53;2.90;28.40
1680;DHT22;838;51.794;12.258;2024-01-15T08:36:19;3.00;29.30
1680;DHT22;838;51.794;12.258;2024-01-15T08:38:44;3.10;28.80
1680;DHT22;838;51.794;12.258;2024-01-15T08:41:10;3.10;28.90
1680;DHT22;838;51.794;12.258;2024-01-15T08:43:36;3.10;28.40
1680;DHT22;838;51.794;12.258;2024-01-15T08:46:02;3.20;29.40
1680;DHT22;838;51.794;12.258;2024-01-15T08:48:28;3.40;27.30
1680;DHT22;838;51.794;12.258;2024-01-15T08:50:57;3.40;26.30
1680;DHT22;838;51.794;12.258;2024-01-15T08:53:23;3.50;24.60
1680;DHT22;838;51.794;12.258;2024-01-15T08:55:49;3.50;24.10
1680;DHT22;838;51.794;12.258;2024-01-15T08:58:15;3.70;24.40
1680;DHT22;838;51.794;12.258;2024-01-15T09:00:41;3.60;22.70
1680;DHT22;838;51.794;12.258;2024-01-15T09:03:07;3.70;22.90
1680;DHT22;838;51.794;12.258;2024-01-15T09:05:34;3.60;22.90
1680;DHT22;838;51.794;12.258;2024-01-15T09:08:00;3.70;23.30
1680;DHT22;838;51.794;12.258;2024-01-15T09:10:25;3.80;21.70
1680;DHT22;838;51.794;12.258;2024-01-15T09:12:51;3.80;22.60
1680;DHT22;838;51.794;12.258;2024-01-15T09:15:17;3.90;21.60
1680;DHT22;838;51.794;12.258;2024-01-15T09:17:42;3.90;22.20
1680;DHT22;838;51.794;12.258;2024-01-15T09:20:09;3.90;21.20
1680;DHT22;838;51.794;12.258;2024-01-15T09:22:37;4.00;22.00
1680;DHT22;838;51.794;12.258;2024-01-15T09:25:04;4.30;21.90
1680;DHT22;838;51.794;12.258;2024-01-15T09:27:30;4.50;19.60
1680;DHT22;838;51.794;12.258;2024-01-15T09:29:56;4.60;17.90
1680;DHT22;838;51.794;12.258;2024-01-15T09:32:22;4.80;18.40
1680;DHT22;838;51.794;12.258;2024-01-15T09:34:48;4.90;17.10
1680;DHT22;838;51.794;12.258;2024-01-15T09:37:14;4.90;14.40
1680;DHT22;838;51.794;12.258;2024-01-15T09:39:40;4.90;14.20
1680;DHT22;838;51.794;12.258;2024-01-15T09:42:06;5.00;14.40
1680;DHT22;838;51.794;12.258;2024-01-15T09:44:32;5.10;13.40
1680;DHT22;838;51.794;12.258;2024-01-15T09:46:59;5.20;13.10
1680;DHT22;838;51.794;12.258;2024-01-15T09:49:25;5.30;11.10
1680;DHT22;838;51.794;12.258;2024-01-15T09:51:51;5.40;11.00
1680;DHT22;838;51.794;12.258;2024-01-15T09:54:16;5.50;11.60
1680;DHT22;838;51.794;12.258;2024-01-15T09:56:46;5.70;9.40
1680;DHT22;838;51.794;12.258;2024-01-15T09:59:15;5.80;8.70
1680;DHT22;838;51.794;12.258;2024-01-15T10:01:42;5.70;9.20
1680;DHT22;838;51.794;12.258;2024-01-15T10:04:12;5.40;9.90
1680;DHT22;838;51.794;12.258;2024-01-15T10:06:39;5.30;14.40
1680;DHT22;838;51.794;12.258;2024-01-15T10:09:07;5.00;13.30
1680;DHT22;838;51.794;12.258;2024-01-15T10:11:33;4.80;15.40
1680;DHT22;838;51.794;12.258;2024-01-15T10:13:59;4.80;16.00
1680;DHT22;838;51.794;12.258;2024-01-15T10:16:25;4.80;16.10
1680;DHT22;838;51.794;12.258;2024-01-15T10:18:51;4.90;16.10
1680;DHT22;838;51.794;12.258;2024-01-15T10:21:17;5.00;14.80
1680;DHT22;838;51.794;12.258;2024-01-15T10:23:43;4.90;13.00
1680;DHT22;838;51.794;12.258;2024-01-15T10:26:09;4.80;13.10
1680;DHT22;838;51.794;12.258;2024-01-15T10:28:37;4.80;12.00
1680;DHT22;838;51.794;12.258;2024-01-15T10:31:03;4.60;13.40
1680;DHT22;838;51.794;12.258;2024-01-15T10:33:30;4.40;14.90
1680;DHT22;838;51.794;12.258;2024-01-15T10:35:57;4.40;15.50
1680;DHT22;838;51.794;12.258;2024-01-15T10:38:24;4.30;15.80
1680;DHT22;838;51.794;12.258;2024-01-15T10:40:54;4.30;15.50
1680;DHT22;838;51.794;12.258;2024-01-15T10:43:21;4.30;15.10
1680;DHT22;838;51.794;12.258;2024-01-15T10:45:47;4.40;14.40
1680;DHT22;838;51.794;12.258;2024-01-15T10:48:14;4.40;14.90
1680;DHT22;838;51.794;12.258;2024-01-15T10:50:41;4.30;15.90
1680;DHT22;838;51.794;12.258;2024-01-15T10:53:08;4.30;16.50
1680;DHT22;838;51.794;12.258;2024-01-15T10:55:36;4.20;17.00
1680;DHT22;838;51.794;12.258;2024-01-15T10:58:03;4.20;17.70
1680;DHT22;838;51.794;12.258;2024-01-15T11:00:29;4.00;20.40
1680;DHT22;838;51.794;12.258;2024-01-15T11:02:55;3.80;23.60
1680;DHT22;838;51.794;12.258;2024-01-15T11:05:22;3.80;26.60
1680;DHT22;838;51.794;12.258;2024-01-15T11:07:51;3.80;27.10
1680;DHT22;838;51.794;12.258;2024-01-15T11:13:53;4.00;26.40
1680;DHT22;838;51.794;12.258;2024-01-15T11:16:02;4.00;27.60
1680;DHT22;838;51.794;12.258;2024-01-15T11:18:41;4.10;28.70
1680;DHT22;838;51.794;12.258;2024-01-15T11:23:46;3.90;28.80
1680;DHT22;838;51.794;12.258;2024-01-15T11:26:35;3.90;29.70
1680;DHT22;838;51.794;12.258;2024-01-15T11:29:34;4.00;29.00
1680;DHT22;838;51.794;12.258;2024-01-15T11:32:10;3.90;28.50
1680;DHT22;838;51.794;12.258;2024-01-15T11:34:58;3.80;28.30
1680;DHT22;838;51.794;12.258;2024-01-15T11:37:26;3.90;29.90
1680;DHT22;838;51.794;12.258;2024-01-15T11:39:53;4.20;27.30
1680;DHT22;838;51.794;12.258;2024-01-15T11:42:20;4.40;25.50
1680;DHT22;838;51.794;12.258;2024-01-15T11:44:47;4.50;24.10
1680;DHT22;838;51.794;12.258;2024-01-15T11:47:13;4.50;22.20
1680;DHT22;838;51.794;12.258;2024-01-15T11:52:11;4.60;20.40
1680;DHT22;838;51.794;12.258;2024-01-15T11:54:46;4.70;18.80
1680;DHT22;838;51.794;12.258;2024-01-15T11:57:24;4.50;17.40
1680;DHT22;838;51.794;12.258;2024-01-15T11:59:51;4.50;17.40
1680;DHT22;838;51.794;12.258;2024-01-15T12:02:17;4.70;15.80
1680;DHT22;838;51.794;12.258;2024-01-15T12:04:42;4.70;14.80
1680;DHT22;838;51.794;12.258;2024-01-15T12:07:08;4.80;13.10
1680;DHT22;838;51.794;12.258;2024-01-15T12:09:34;4.70;11.70
1680;DHT22;838;51.794;12.258;2024-01-15T12:12:07;4.70;10.60
1680;DHT22;838;51.794;12.258;2024-01-15T12:14:37;4.60;8.50
1680;DHT22;838;51.794;12.258;2024-01-15T12:17:04;4.60;7.90
1680;DHT22;838;51.794;12.258;2024-01-15T12:19:30;4.50;6.80
1680;DHT22;838;51.794;12.258;2024-01-15T12:21:56;4.50;6.30
1680;DHT22;838;51.794;12.258;2024-01-15T12:24:22;4.50;6.60
1680;DHT22;838;51.794;12.258;2024-01-15T12:26:47;4.50;6.60
1680;DHT22;838;51.794;12.258;2024-01-15T12:29:13;4.50;6.80
1680;DHT22;838;51.794;12.258;2024-01-15T12:31:39;4.60;6.00
1680;DHT22;838;51.794;12.258;2024-01-15T12:34:05;4.60;6.00
1680;DHT22;838;51.794;12.258;2024-01-15T12:36:31;4.60;4.90
1680;DHT22;838;51.794;12.258;2024-01-15T12:39:00;4.70;3.60
1680;DHT22;838;51.794;12.258;2024-01-15T12:41:26;4.70;5.00
1680;DHT22;838;51.794;12.258;2024-01-15T12:43:52;4.80;2.10
1680;DHT22;838;51.794;12.258;2024-01-15T12:46:17;4.70;2.20
1680;DHT22;838;51.794;12.258;2024-01-15T12:48:44;4.60;3.60
1680;DHT22;838;51.794;12.258;2024-01-15T12:51:10;4.70;4.30
1680;DHT22;838;51.794;12.258;2024-01-15T12:53:36;4.70;3.30
1680;DHT22;838;51.794;12.258;2024-01-15T12:56:01;4.70;1.80
1680;DHT22;838;51.794;12.258;2024-01-15T12:58:27;4.60;3.10
1680;DHT22;838;51.794;12.258;2024-01-15T13:00:55;4.60;3.10
1680;DHT22;838;51.794;12.258;2024-01-15T13:03:22;4.60;3.60
1680;DHT22;838;51.794;12.258;2024-01-15T13:05:48;4.70;3.80
1680;DHT22;838;51.794;12.258;2024-01-15T13:08:14;4.70;1.20
1680;DHT22;838;51.794;12.258;2024-01-15T13:10:40;4.80;2.80
1680;DHT22;838;51.794;12.258;2024-01-15T13:13:07;5.00;1.70
1680;DHT22;838;51.794;12.258;2024-01-15T13:15:33;5.00;1.00
1680;DHT22;838;51.794;12.258;2024-01-15T13:17:59;4.90;1.00
1680;DHT22;838;51.794;12.258;2024-01-15T13:20:24;4.70;1.00
1680;DHT22;838;51.794;12.258;2024-01-15T13:22:50;4.50;1.00
1680;DHT22;838;51.794;12.258;2024-01-15T13:25:16;4.50;1.60
1680;DHT22;838;51.794;12.258;2024-01-15T13:27:41;4.60;2.90
1680;DHT22;838;51.794;12.258;2024-01-15T13:30:08;4.60;1.90
1680;DHT22;838;51.794;12.258;2024-01-15T13:32:33;4.60;1.70
1680;DHT22;838;51.794;12.258;2024-01-15T13:35:00;4.50;1.00
1680;DHT22;838;51.794;12.258;2024-01-15T13:37:25;4.50;1.00
1680;DHT22;838;51.794;12.258;2024-01-15T13:39:51;4.50;1.00
1680;DHT22;838;51.794;12.258;2024-01-15T13:42:18;4.40;1.00
1680;DHT22;838;51.794;12.258;2024-01-15T13:44:43;4.40;1.00
1680;DHT22;838;51.794;12.258;2024-01-15T13:47:09;4.40;1.00
1680;DHT22;838;51.794;12.258;2024-01-15T13:49:35;4.40;1.00
1680;DHT22;838;51.794;12.258;2024-01-15T13:52:02;4.40;1.00
1680;DHT22;838;51.794;12.258;2024-01-15T13:54:29;4.30;1.00
1680;DHT22;838;51.794;12.258;2024-01-15T13:56:56;4.20;1.00
1680;DHT22;838;51.794;12.258;2024-01-15T13:59:22;4.00;1.00
1680;DHT22;838;51.794;12.258;2024-01-15T14:01:48;4.20;1.00
1680;DHT22;838;51.794;12.258;2024-01-15T14:04:14;4.20;1.00
1680;DHT22;838;51.794;12.258;2024-01-15T14:06:39;4.20;1.00
1680;DHT22;838;51.794;12.258;2024-01-15T14:09:05;4.20;1.00
1680;DHT22;838;51.794;12.258;2024-01-15T14:11:31;4.10;1.00
1680;DHT22;838;51.794;12.258;2024-01-15T14:13:57;4.10;1.00
1680;DHT22;838;51.794;12.258;2024-01-15T14:16:22;4.00;1.00
1680;DHT22;838;51.794;12.258;2024-01-15T14:18:48;4.00;1.00
1680;DHT22;838;51.794;12.258;2024-01-15T14:21:14;4.00;1.00
1680;DHT22;838;51.794;12.258;2024-01-15T14:23:40;4.00;1.00
1680;DHT22;838;51.794;12.258;2024-01-15T14:26:06;4.00;1.00
1680;DHT22;838;51.794;12.258;2024-01-15T14:28:31;4.00;1.00
1680;DHT22;838;51.794;12.258;2024-01-15T14:30:57;4.00;1.00
1680;DHT22;838;51.794;12.258;2024-01-15T14:33:26;4.10;1.00
1680;DHT22;838;51.794;12.258;2024-01-15T14:35:52;4.20;1.00
1680;DHT22;838;51.794;12.258;2024-01-15T14:38:18;4.10;1.00
1680;DHT22;838;51.794;12.258;2024-01-15T14:40:44;4.00;1.00
1680;DHT22;838;51.794;12.258;2024-01-15T14:43:10;3.90;1.00
1680;DHT22;838;51.794;12.258;2024-01-15T14:45:36;3.90;1.00
1680;DHT22;838;51.794;12.258;2024-01-15T14:48:02;3.90;1.00
1680;DHT22;838;51.794;12.258;2024-01-15T14:50:27;3.90;1.00
1680;DHT22;838;51.794;12.258;2024-01-15T14:52:53;3.90;1.00
1680;DHT22;838;51.794;12.258;2024-01-15T14:55:19;3.80;1.00
1680;DHT22;838;51.794;12.258;2024-01-15T14:57:45;3.80;1.00
1680;DHT22;838;51.794;12.258;2024-01-15T15:00:11;3.80;1.00
1680;DHT22;838;51.794;12.258;2024-01-15T15:02:39;3.80;1.00
1680;DHT22;838;51.794;12.258;2024-01-15T15:05:05;3.80;1.00
1680;DHT22;838;51.794;12.258;2024-01-15T15:07:30;3.70;1.00
1680;DHT22;838;51.794;12.258;2024-01-15T15:09:56;3.70;1.00
1680;DHT22;838;51.794;12.258;2024-01-15T15:12:22;3.70;1.00
1680;DHT22;838;51.794;12.258;2024-01-15T15:14:48;3.80;1.00
1680;DHT22;838;51.794;12.258;2024-01-15T15:17:14;3.80;1.00
1680;DHT22;838;51.794;12.258;2024-01-15T15:19:40;3.80;1.00
1680;DHT22;838;51.794;12.258;2024-01-15T15:22:07;3.80;1.00
1680;DHT22;838;51.794;12.258;2024-01-15T15:24:38;3.80;1.00
1680;DHT22;838;51.794;12.258;2024-01-15T15:27:05;3.80;1.00
1680;DHT22;838;51.794;12.258;2024-01-15T15:29:33;3.80;1.00
1680;DHT22;838;51.794;12.258;2024-01-15T15:32:01;3.80;1.00
1680;DHT22;838;51.794;12.258;2024-01-15T15:34:28;3.60;1.00
1680;DHT22;838;51.794;12.258;2024-01-15T15:36:53;3.60;1.00
1680;DHT22;838;51.794;12.258;2024-01-15T15:39:19;3.60;1.00
1680;DHT22;838;51.794;12.258;2024-01-15T15:41:45;3.60;1.00
1680;DHT22;838;51.794;12.258;2024-01-15T15:44:11;3.60;1.00
1680;DHT22;838;51.794;12.258;2024-01-15T15:46:39;3.60;1.00
1680;DHT22;838;51.794;12.258;2024-01-15T15:49:04;3.60;1.00
1680;DHT22;838;51.794;12.258;2024-01-15T15:51:32;3.60;1.00
1680;DHT22;838;51.794;12.258;2024-01-15T15:53:58;3.70;1.00
1680;DHT22;838;51.794;12.258;2024-01-15T15:56:24;3.60;1.00
1680;DHT22;838;51.794;12.258;2024-01-15T15:58:52;3.50;1.00
1680;DHT22;838;51.794;12.258;2024-01-15T16:01:18;3.50;1.00
1680;DHT22;838;51.794;12.258;2024-01-15T16:03:45;3.50;1.00
1680;DHT22;838;51.794;12.258;2024-01-15T16:06:11;3.40;1.00
1680;DHT22;838;51.794;12.258;2024-01-15T16:08:36;3.40;1.00
1680;DHT22;838;51.794;12.258;2024-01-15T16:11:02;3.40;1.00
1680;DHT22;838;51.794;12.258;2024-01-15T16:13:28;3.40;1.00
1680;DHT22;838;51.794;12.258;2024-01-15T16:15:55;3.40;1.00
1680;DHT22;838;51.794;12.258;2024-01-15T16:18:20;3.50;1.00
1680;DHT22;838;51.794;12.258;2024-01-15T16:20:46;3.50;1.00
1680;DHT22;838;51.794;12.258;2024-01-15T16:23:12;3.50;1.00